Time;durP1;ratioP1;P1;durP2;ratioP2;P2;SDS_P1;SDS_P2;PMS_P1;PMS_P2;Temp;Humidity;BMP_temperature;BMP_pressure;BME280_temperature;BME280_humidity;BME280_pressure;Samples;Min_cycle;Max_cycle;Signal;HPM_P1;HPM_P2
2020/12/06 00:00:57;;;;;;;33.50;20.60;;;;;;;7.22;90.77;100040.72;1697703;82;21783;-78
2020/12/06 00:03:22;;;;;;;33.88;20.57;;;;;;;7.22;90.77;100040.72;1697520;82;27091;-78
2020/12/06 00:05:48;;;;;;;34.98;21.50;;;;;;;7.22;90.79;100031.52;1692271;82;25339;-80
2020/12/06 00:08:14;;;;;;;33.35;21.42;;;;;;;7.23;90.58;100020.88;1689552;81;28399;-79
2020/12/06 00:10:39;;;;;;;37.80;22.25;;;;;;;7.19;90.78;100024.27;1692293;82;27153;-80
2020/12/06 00:13:17;;;;;;;33.02;20.50;;;;;;;7.22;90.59;100032.83;1692640;82;22036;-79
2020/12/06 00:15:43;;;;;;;33.75;21.95;;;;;;;7.19;90.63;100024.27;1683281;82;21196;-79
2020/12/06 00:18:09;;;;;;;37.30;21.82;;;;;;;7.22;90.69;100030.20;1689869;81;25303;-80
2020/12/06 00:20:35;;;;;;;32.73;19.82;;;;;;;7.23;90.45;100031.88;1690364;82;28335;-79
2020/12/06 00:23:00;;;;;;;35.10;20.90;;;;;;;7.18;90.52;100041.48;1694790;82;26789;-79
2020/12/06 00:25:27;;;;;;;38.48;22.30;;;;;;;7.22;90.46;100046.78;1683207;81;22317;-79
2020/12/06 00:27:52;;;;;;;32.05;20.62;;;;;;;7.16;90.67;100044.70;1692393;82;22263;-79
2020/12/06 00:30:18;;;;;;;29.85;20.02;;;;;;;7.18;90.56;100057.23;1697608;82;25318;-79
2020/12/06 00:32:44;;;;;;;35.15;20.90;;;;;;;7.14;90.77;100054.53;1693416;82;28582;-79
2020/12/06 00:35:10;;;;;;;31.73;20.02;;;;;;;7.15;90.82;100054.88;1685538;81;26755;-79
2020/12/06 00:37:39;;;;;;;32.50;20.60;;;;;;;7.23;90.58;100052.89;1695356;82;21986;-78
2020/12/06 00:40:07;;;;;;;29.42;19.07;;;;;;;7.21;90.66;100058.28;1698497;82;21281;-78
2020/12/06 00:42:34;;;;;;;34.58;20.10;;;;;;;7.25;90.48;100064.08;1689403;82;21167;-78
2020/12/06 00:45:01;;;;;;;34.55;19.25;;;;;;;7.26;90.35;100065.75;1688197;81;21211;-78
2020/12/06 00:47:26;;;;;;;32.45;20.30;;;;;;;7.27;90.20;100062.13;1691648;82;21204;-78
2020/12/06 00:49:52;;;;;;;30.82;19.42;;;;;;;7.29;90.10;100062.84;1688081;81;22661;-78
2020/12/06 00:52:18;;;;;;;32.23;18.62;;;;;;;7.27;90.10;100055.56;1688705;81;27149;-78
2020/12/06 00:54:44;;;;;;;29.67;18.82;;;;;;;7.32;89.94;100063.89;1698194;82;25582;-78
2020/12/06 00:57:09;;;;;;;31.68;19.00;;;;;;;7.41;89.76;100049.93;1696051;83;28535;-78
2020/12/06 00:59:35;;;;;;;31.27;19.05;;;;;;;7.41;89.84;100059.12;1687745;82;27409;-78
2020/12/06 01:02:03;;;;;;;33.70;19.67;;;;;;;7.45;89.38;100057.04;1688269;82;22083;-78
2020/12/06 01:04:31;;;;;;;;;;;;;;;7.36;89.43;100061.31;1693441;82;21236;-78
2020/12/06 01:06:59;;;;;;;30.72;18.57;;;;;;;7.34;89.63;100061.95;1692654;82;20578;-78
2020/12/06 01:09:25;;;;;;;28.70;18.25;;;;;;;7.33;89.63;100063.75;1689810;82;21209;-78
2020/12/06 01:11:51;;;;;;;30.70;19.85;;;;;;;7.27;89.75;100058.20;1692026;82;21153;-78
2020/12/06 01:14:17;;;;;;;32.45;18.27;;;;;;;7.31;89.84;100051.70;1697372;82;21980;-78
2020/12/06 01:16:43;;;;;;;28.98;18.65;;;;;;;7.25;89.97;100054.88;1690325;82;21590;-78
2020/12/06 01:19:09;;;;;;;30.50;19.00;;;;;;;7.33;89.69;100043.20;1677128;83;25287;-78
2020/12/06 01:21:35;;;;;;;33.00;20.52;;;;;;;7.36;89.57;100049.03;1695852;81;28440;-78
2020/12/06 01:24:01;;;;;;;31.57;20.27;;;;;;;7.34;89.49;100048.81;1692906;81;27033;-78
2020/12/06 01:26:26;;;;;;;34.33;20.17;;;;;;;7.28;89.66;100050.67;1689588;83;21889;-79
2020/12/06 01:28:52;;;;;;;30.82;19.27;;;;;;;7.23;89.91;100052.39;1696231;81;27530;-79
2020/12/06 01:31:18;;;;;;;31.57;18.95;;;;;;;7.22;90.05;100049.41;1692026;81;25342;-78
2020/12/06 01:33:43;;;;;;;34.65;19.57;;;;;;;7.21;90.09;100052.17;1688807;81;29473;-77
2020/12/06 01:36:09;;;;;;;32.03;19.15;;;;;;;7.16;90.29;100048.64;1694337;81;27421;-80
2020/12/06 01:38:36;;;;;;;33.28;19.73;;;;;;;7.11;90.50;100054.80;1685852;82;22216;-79
2020/12/06 01:41:02;;;;;;;30.85;19.35;;;;;;;7.21;90.24;100057.42;1686506;81;21156;-79
2020/12/06 01:43:28;;;;;;;32.28;18.55;;;;;;;7.13;90.46;100064.21;1701358;82;21368;-79
2020/12/06 01:45:54;;;;;;;29.32;18.92;;;;;;;7.17;90.35;100061.64;1693562;82;28452;-79
2020/12/06 01:48:20;;;;;;;30.57;19.67;;;;;;;7.12;90.55;100060.41;1693147;82;26809;-79
2020/12/06 01:50:45;;;;;;;27.52;17.98;;;;;;;7.09;90.63;100062.81;1695525;82;21236;-79
2020/12/06 01:53:11;;;;;;;29.57;19.00;;;;;;;7.14;90.50;100071.09;1687783;82;27559;-79
2020/12/06 01:55:38;;;;;;;30.02;18.07;;;;;;;7.15;90.41;100074.58;1667690;81;26060;-77
2020/12/06 01:58:07;;;;;;;26.42;17.10;;;;;;;7.15;90.48;100078.02;1695233;82;21711;-77
2020/12/06 02:00:33;;;;;;;27.75;18.10;;;;;;;7.16;90.45;100067.87;1691146;82;21315;-77
2020/12/06 02:03:00;;;;;;;28.35;17.92;;;;;;;7.25;90.19;100068.02;1693393;82;21224;-77
2020/12/06 02:05:27;;;;;;;30.30;17.73;;;;;;;7.19;90.14;100063.66;1695688;82;21173;-77
2020/12/06 02:07:57;;;;;;;28.10;17.55;;;;;;;7.27;89.84;100059.05;1693924;82;21243;-77
2020/12/06 02:10:20;;;;;;;;;;;;;;;7.32;89.67;100059.45;1688876;83;21676;-77
2020/12/06 02:12:47;;;;;;;28.00;17.62;;;;;;;7.30;89.48;100056.14;1683455;82;20152;-77
2020/12/06 02:15:13;;;;;;;28.17;17.93;;;;;;;7.27;89.52;100060.36;1690510;82;21271;-78
2020/12/06 02:17:39;;;;;;;26.87;17.12;;;;;;;7.26;89.48;100061.31;1691444;82;21192;-78
2020/12/06 02:20:06;;;;;;;28.67;18.15;;;;;;;7.24;89.62;100059.31;1696993;82;21228;-78
2020/12/06 02:22:32;;;;;;;29.18;17.35;;;;;;;7.23;89.79;100058.14;1699409;81;21157;-77
2020/12/06 02:24:57;;;;;;;27.17;17.57;;;;;;;7.25;89.73;100066.70;1692136;82;27372;-77
2020/12/06 02:27:23;;;;;;;29.87;18.25;;;;;;;7.28;89.62;100063.80;1695459;82;22690;-77
2020/12/06 02:29:49;;;;;;;27.35;17.65;;;;;;;7.23;89.76;100056.83;1689245;82;27099;-77
2020/12/06 02:32:14;;;;;;;29.10;18.42;;;;;;;7.28;89.56;100062.48;1688042;82;25489;-78
2020/12/06 02:34:40;;;;;;;27.60;16.90;;;;;;;7.32;89.42;100059.95;1693588;82;28512;-78
2020/12/06 02:37:06;;;;;;;28.42;17.35;;;;;;;7.31;89.44;100056.97;1684488;82;23474;-78
2020/12/06 02:39:32;;;;;;;30.00;18.23;;;;;;;7.30;89.55;100056.61;1682928;82;21978;-78
2020/12/06 02:41:57;;;;;;;28.25;16.95;;;;;;;7.39;89.09;100055.78;1686210;82;27592;-77
2020/12/06 02:44:23;;;;;;;31.80;19.07;;;;;;;7.42;88.90;100052.88;1692587;82;25428;-77
2020/12/06 02:46:49;;;;;;;26.40;16.82;;;;;;;7.45;88.93;100044.72;1686979;81;28384;-79
2020/12/06 02:49:15;;;;;;;28.98;18.75;;;;;;;7.42;88.61;100047.63;1685981;81;27241;-79
2020/12/06 02:51:40;;;;;;;30.35;18.42;;;;;;;7.39;88.93;100050.53;1690252;82;21479;-79
2020/12/06 02:54:06;;;;;;;30.25;19.60;;;;;;;7.40;88.72;100054.83;1687233;82;27201;-79
2020/12/06 02:56:32;;;;;;;32.23;18.95;;;;;;;7.36;88.92;100056.06;1687505;83;25577;-79
2020/12/06 02:59:01;;;;;;;29.55;18.60;;;;;;;7.31;89.15;100064.84;1678557;82;21141;-79
2020/12/06 03:01:31;;;;;;;30.20;18.92;;;;;;;7.30;89.21;100064.48;1691186;82;21260;-78
2020/12/06 03:04:00;;;;;;;29.55;18.70;;;;;;;7.30;89.29;100059.23;1700809;81;21738;-78
2020/12/06 03:06:26;;;;;;;28.30;18.95;;;;;;;7.30;89.20;100067.11;1691336;82;21287;-78
2020/12/06 03:08:52;;;;;;;28.10;18.50;;;;;;;7.32;89.08;100058.63;1690039;82;25428;-78
2020/12/06 03:11:18;;;;;;;31.85;19.40;;;;;;;7.24;89.40;100072.91;1687501;82;28338;-79
2020/12/06 03:13:43;;;;;;;29.32;19.45;;;;;;;7.22;89.51;100065.17;1689585;83;26830;-76
2020/12/06 03:16:09;;;;;;;29.48;18.95;;;;;;;7.23;89.58;100064.22;1688827;81;22398;-79
2020/12/06 03:18:35;;;;;;;31.45;18.57;;;;;;;7.24;89.56;100065.03;1680726;82;27903;-79
2020/12/06 03:21:01;;;;;;;28.87;18.85;;;;;;;7.27;89.47;100062.98;1692369;82;25895;-77
2020/12/06 03:23:27;;;;;;;29.72;18.32;;;;;;;7.24;89.40;100055.38;1690057;82;28445;-77
2020/12/06 03:25:53;;;;;;;31.57;19.55;;;;;;;7.27;89.33;100056.88;1685057;81;21216;-77
2020/12/06 03:28:18;;;;;;;32.58;20.27;;;;;;;7.21;89.46;100049.55;1688833;82;21897;-76
2020/12/06 03:30:44;;;;;;;29.27;18.55;;;;;;;7.21;89.55;100050.86;1679526;83;27125;-78
2020/12/06 03:33:10;;;;;;;30.62;19.48;;;;;;;7.17;89.56;100060.33;1682029;81;26022;-77
2020/12/06 03:35:36;;;;;;;29.52;18.65;;;;;;;7.16;89.66;100064.40;1680780;82;29010;-77
2020/12/06 03:38:01;;;;;;;31.35;19.02;;;;;;;7.13;89.71;100070.77;1689094;82;26922;-77
2020/12/06 03:40:27;;;;;;;29.85;18.50;;;;;;;7.11;89.80;100065.30;1693414;81;21327;-77
2020/12/06 03:42:53;;;;;;;31.15;18.67;;;;;;;7.11;89.87;100077.94;1689550;82;27302;-77
2020/12/06 03:45:19;;;;;;;28.80;18.55;;;;;;;7.10;89.74;100075.45;1686386;82;25514;-77
2020/12/06 03:47:45;;;;;;;29.37;18.95;;;;;;;7.14;89.60;100078.16;1695756;82;21180;-77
2020/12/06 03:50:11;;;;;;;30.02;18.32;;;;;;;7.10;89.66;100086.80;1684813;82;26959;-77
2020/12/06 03:52:37;;;;;;;29.12;18.77;;;;;;;7.09;89.68;100081.19;1692758;82;21239;-77
2020/12/06 03:55:04;;;;;;;30.32;18.92;;;;;;;7.05;89.90;100086.36;1685407;82;27583;-77
2020/12/06 03:57:29;;;;;;;28.17;18.60;;;;;;;7.13;89.51;100079.97;1699451;83;21644;-77
2020/12/06 03:59:55;;;;;;;32.10;19.25;;;;;;;7.04;89.66;100087.34;1700726;82;28875;-77
2020/12/06 04:02:21;;;;;;;29.65;18.55;;;;;;;7.05;89.70;100094.72;1691705;82;26948;-77
2020/12/06 04:04:47;;;;;;;27.85;17.98;;;;;;;7.05;89.60;100098.17;1695551;82;22057;-77
2020/12/06 04:07:12;;;;;;;30.12;19.20;;;;;;;7.11;89.41;100096.81;1697631;81;27119;-79
2020/12/06 04:09:38;;;;;;;30.97;18.00;;;;;;;7.15;89.25;100097.72;1682689;82;25342;-77
2020/12/06 04:12:04;;;;;;;28.47;18.10;;;;;;;7.14;89.17;100098.67;1692518;82;28398;-77
2020/12/06 04:14:29;;;;;;;28.60;18.73;;;;;;;7.15;89.00;100104.28;1679643;82;27397;-77
2020/12/06 04:16:55;;;;;;;30.25;18.98;;;;;;;7.11;88.92;100100.25;1694986;83;21923;-77
2020/12/06 04:19:21;;;;;;;26.80;18.07;;;;;;;7.13;88.79;100099.66;1693423;82;27058;-77
2020/12/06 04:21:47;;;;;;;29.18;19.12;;;;;;;7.12;88.90;100105.87;1688969;81;26145;-77
2020/12/06 04:24:12;;;;;;;28.45;17.20;;;;;;;7.15;88.58;100099.03;1687571;83;28399;-77
2020/12/06 04:26:39;;;;;;;26.62;17.85;;;;;;;7.12;88.66;100106.36;1682466;82;27325;-77
2020/12/06 04:29:05;;;;;;;30.23;18.67;;;;;;;7.18;88.30;100114.52;1695407;82;21392;-77
2020/12/06 04:31:31;;;;;;;26.77;17.50;;;;;;;7.23;87.91;100115.92;1687503;83;27524;-77
2020/12/06 04:33:57;;;;;;;26.75;17.92;;;;;;;7.20;87.76;100113.07;1692740;82;25792;-77
2020/12/06 04:36:22;;;;;;;24.30;16.80;;;;;;;7.11;87.93;100109.45;1681713;83;28387;-78
2020/12/06 04:38:48;;;;;;;24.72;16.62;;;;;;;7.05;87.99;100119.17;1689418;82;27300;-79
2020/12/06 04:41:14;;;;;;;26.93;17.67;;;;;;;7.05;88.12;100108.67;1696268;82;22055;-79
2020/12/06 04:43:40;;;;;;;26.80;18.00;;;;;;;7.00;88.16;100113.50;1687877;83;27043;-79
2020/12/06 04:46:07;;;;;;;28.87;18.12;;;;;;;6.90;88.40;100113.95;1684229;83;25422;-77
2020/12/06 04:48:47;;;;;;;26.27;17.67;;;;;;;6.89;88.40;100119.69;1694535;82;21208;-79
2020/12/06 04:51:13;;;;;;;25.32;16.80;;;;;;;6.89;88.34;100124.12;1688058;81;21137;-79
2020/12/06 04:53:51;;;;;;;24.82;16.07;;;;;;;6.89;88.42;100117.06;1697137;82;21379;-79
2020/12/06 04:56:16;;;;;;;;;;;;;;;6.82;88.45;100116.77;1693447;82;21530;-78
2020/12/06 04:58:42;;;;;;;21.70;14.38;;;;;;;6.78;88.47;100104.87;1691332;82;20207;-78
2020/12/06 05:01:08;;;;;;;24.20;15.93;;;;;;;6.79;88.41;100109.62;1694210;82;21165;-78
2020/12/06 05:03:35;;;;;;;24.43;16.17;;;;;;;6.72;88.50;100110.64;1693420;82;26882;-79
2020/12/06 05:06:00;;;;;;;24.60;17.23;;;;;;;6.70;88.45;100129.64;1694504;82;21207;-80
2020/12/06 05:08:26;;;;;;;25.65;17.05;;;;;;;6.70;88.36;100117.83;1696493;82;27050;-78
2020/12/06 05:10:52;;;;;;;23.83;16.48;;;;;;;6.69;88.40;100130.59;1694998;82;25439;-77
2020/12/06 05:13:18;;;;;;;25.27;16.30;;;;;;;6.62;88.47;100134.72;1663611;84;29560;-78
2020/12/06 05:15:44;;;;;;;22.00;15.23;;;;;;;6.62;88.40;100130.78;1691049;82;27406;-78
2020/12/06 05:18:09;;;;;;;20.85;14.85;;;;;;;6.62;88.30;100134.72;1687181;82;22053;-78
2020/12/06 05:20:35;;;;;;;23.55;15.70;;;;;;;6.65;88.09;100135.77;1686158;82;27226;-78
2020/12/06 05:23:02;;;;;;;24.80;16.07;;;;;;;6.57;88.32;100132.95;1693183;82;25482;-78
2020/12/06 05:25:27;;;;;;;23.57;16.77;;;;;;;6.55;88.30;100130.95;1694655;82;21184;-78
2020/12/06 05:27:53;;;;;;;23.07;15.00;;;;;;;6.55;88.20;100132.26;1689902;82;27558;-78
2020/12/06 05:30:19;;;;;;;23.27;15.48;;;;;;;6.50;88.29;100132.65;1695284;82;22337;-78
2020/12/06 05:32:45;;;;;;;22.75;15.38;;;;;;;6.44;88.40;100133.16;1699522;82;26659;-78
2020/12/06 05:35:12;;;;;;;23.40;14.70;;;;;;;6.46;88.43;100146.52;1682840;81;25502;-78
2020/12/06 05:37:39;;;;;;;18.85;13.75;;;;;;;6.46;88.41;100150.91;1684048;83;21212;-78
2020/12/06 05:40:10;;;;;;;21.02;13.75;;;;;;;6.40;88.29;100153.59;1692955;82;21783;-78
2020/12/06 05:42:39;;;;;;;17.90;12.63;;;;;;;6.38;88.24;100146.31;1704921;82;21237;-79
2020/12/06 05:45:05;;;;;;;19.07;13.38;;;;;;;6.47;88.11;100163.08;1686340;82;21505;-77
2020/12/06 05:47:31;;;;;;;20.62;14.98;;;;;;;6.42;87.95;100164.77;1680780;82;25560;-79
2020/12/06 05:49:57;;;;;;;21.65;15.43;;;;;;;6.42;87.83;100167.40;1684510;82;28801;-79
2020/12/06 05:52:28;;;;;;;21.52;14.53;;;;;;;6.38;87.93;100163.36;1689852;82;21685;-79
2020/12/06 05:54:56;;;;;;;20.72;14.05;;;;;;;6.39;87.87;100174.21;1686862;81;21208;-77
2020/12/06 05:57:29;;;;;;;19.60;13.78;;;;;;;6.35;87.82;100174.11;1686088;82;21486;-77
2020/12/06 06:00:00;;;;;;;19.52;13.40;;;;;;;6.37;87.80;100180.08;1693793;81;21271;-77
2020/12/06 06:02:26;;;;;;;18.35;13.08;;;;;;;6.36;87.76;100188.89;1693751;82;21218;-77
2020/12/06 06:04:52;;;;;;;17.75;13.30;;;;;;;6.44;87.57;100195.63;1687303;82;21216;-79
2020/12/06 06:07:22;;;;;;;19.55;13.80;;;;;;;6.49;87.42;100198.36;1696345;82;21232;-77
2020/12/06 06:09:51;;;;;;;20.68;13.93;;;;;;;6.58;87.17;100203.66;1700599;81;21175;-80
2020/12/06 06:12:32;;;;;;;19.00;14.43;;;;;;;6.49;86.97;100197.05;1688668;82;21153;-77
2020/12/06 06:15:01;;;;;;;20.62;13.48;;;;;;;6.53;86.87;100191.91;1690013;82;21224;-78
2020/12/06 06:17:30;;;;;;;17.92;13.32;;;;;;;6.49;86.58;100200.49;1693493;82;21593;-77
2020/12/06 06:19:56;;;;;;;19.60;13.20;;;;;;;6.44;86.77;100206.62;1690581;82;21229;-78
2020/12/06 06:22:34;;;;;;;16.73;12.43;;;;;;;6.40;86.78;100207.36;1702214;82;27309;-78
2020/12/06 06:25:00;;;;;;;17.50;12.10;;;;;;;6.45;86.62;100206.48;1694530;82;21193;-78
2020/12/06 06:27:38;;;;;;;15.30;11.88;;;;;;;6.38;86.60;100206.64;1696656;82;21162;-78
2020/12/06 06:30:08;;;;;;;17.10;12.95;;;;;;;6.36;86.52;100195.45;1692127;82;21251;-78
2020/12/06 06:32:35;;;;;;;19.25;13.35;;;;;;;6.42;86.35;100205.43;1698585;81;21653;-78
2020/12/06 06:35:02;;;;;;;17.13;12.20;;;;;;;6.36;86.47;100209.87;1678958;82;22285;-78
2020/12/06 06:37:31;;;;;;;16.80;11.78;;;;;;;6.41;86.39;100215.56;1695031;82;21180;-78
2020/12/06 06:40:03;;;;;;;17.48;12.55;;;;;;;6.42;86.32;100214.61;1692945;82;21200;-78
2020/12/06 06:42:29;;;;;;;19.20;11.97;;;;;;;6.37;86.58;100213.32;1700386;82;21232;-78
2020/12/06 06:45:11;;;;;;;17.55;11.63;;;;;;;6.35;86.44;100215.25;1696797;82;21968;-78
2020/12/06 06:47:39;;;;;;;17.00;11.43;;;;;;;6.33;86.55;100215.38;1702128;82;21685;-79
2020/12/06 06:50:11;;;;;;;12.80;9.98;;;;;;;6.26;86.49;100202.41;1701490;81;21207;-78
2020/12/06 06:52:40;;;;;;;15.18;11.15;;;;;;;6.23;86.33;100209.21;1690224;82;21870;-79
2020/12/06 06:55:05;;;;;;;15.35;10.90;;;;;;;6.17;86.41;100211.03;1687484;82;21232;-79
2020/12/06 06:57:32;;;;;;;18.20;12.15;;;;;;;6.17;86.64;100215.81;1684026;82;21853;-78
2020/12/06 06:59:59;;;;;;;15.98;11.25;;;;;;;6.18;86.48;100220.08;1692880;82;21762;-78
2020/12/06 07:02:40;;;;;;;15.32;11.43;;;;;;;6.17;86.39;100217.59;1696196;82;21184;-78
2020/12/06 07:05:17;;;;;;;16.62;11.05;;;;;;;6.18;86.36;100221.88;1703992;81;21090;-79
2020/12/06 07:07:47;;;;;;;;;;;;;;;6.09;86.50;100220.37;1698329;82;21627;-78
2020/12/06 07:10:21;;;;;;;14.00;9.83;;;;;;;6.20;86.24;100223.89;1684203;82;21290;-78
2020/12/06 07:12:49;;;;;;;13.58;10.23;;;;;;;6.23;86.07;100228.88;1690869;83;21660;-78
2020/12/06 07:15:17;;;;;;;16.02;11.40;;;;;;;6.22;85.82;100213.64;1684946;81;21241;-79
2020/12/06 07:17:43;;;;;;;15.45;11.68;;;;;;;6.13;85.97;100219.64;1687254;81;21278;-79
2020/12/06 07:20:12;;;;;;;13.78;10.35;;;;;;;6.08;86.07;100225.25;1693299;82;26821;-78
2020/12/06 07:22:38;;;;;;;15.00;10.28;;;;;;;6.07;86.23;100222.76;1685406;82;21873;-78
2020/12/06 07:25:04;;;;;;;15.00;9.38;;;;;;;6.02;86.17;100217.89;1689424;82;27437;-78
2020/12/06 07:27:30;;;;;;;14.28;10.30;;;;;;;6.06;86.03;100218.00;1699974;83;21671;-79
2020/12/06 07:29:56;;;;;;;17.52;11.40;;;;;;;5.99;86.04;100218.14;1693922;81;21671;-78
2020/12/06 07:32:22;;;;;;;15.85;11.43;;;;;;;5.95;86.36;100216.72;1679524;82;27170;-78
2020/12/06 07:34:48;;;;;;;15.03;10.23;;;;;;;5.97;86.35;100220.06;1689878;82;21789;-78
2020/12/06 07:37:14;;;;;;;14.53;10.05;;;;;;;6.00;86.31;100216.37;1683997;82;21144;-78
2020/12/06 07:39:43;;;;;;;15.88;10.28;;;;;;;6.05;86.16;100224.68;1683333;82;21193;-78
2020/12/06 07:42:09;;;;;;;14.68;10.82;;;;;;;6.11;86.08;100226.31;1699034;82;21193;-77
2020/12/06 07:44:47;;;;;;;13.93;10.58;;;;;;;6.19;85.84;100228.80;1686688;82;26821;-77
2020/12/06 07:47:12;;;;;;;14.25;11.18;;;;;;;6.28;85.66;100233.29;1686303;82;21237;-77
2020/12/06 07:49:44;;;;;;;17.00;11.57;;;;;;;6.27;85.55;100231.62;1687031;82;26994;-77
2020/12/06 07:52:23;;;;;;;16.30;10.98;;;;;;;6.24;85.53;100225.31;1696211;82;21181;-78
2020/12/06 07:54:57;;;;;;;13.62;10.50;;;;;;;6.20;85.26;100225.20;1690681;82;21255;-78
2020/12/06 07:57:44;;;;;;;13.22;9.80;;;;;;;6.22;85.30;100241.17;1682587;82;21160;-79
2020/12/06 08:00:20;;;;;;;14.43;9.97;;;;;;;6.41;84.99;100236.55;1692158;82;21902;-77
2020/12/06 08:02:57;;;;;;;15.45;10.40;;;;;;;6.39;84.66;100228.47;1701996;82;21256;-79
2020/12/06 08:05:25;;;;;;;13.60;10.45;;;;;;;6.29;84.63;100231.85;1676089;82;21191;-82
2020/12/06 08:08:00;;;;;;;15.98;11.30;;;;;;;6.23;84.74;100231.50;1703866;82;21179;-78
2020/12/06 08:10:25;;;;;;;14.35;9.98;;;;;;;6.23;84.50;100228.88;1696470;82;21195;-78
2020/12/06 08:12:53;;;;;;;14.03;10.00;;;;;;;6.11;84.55;100227.63;1692766;81;21948;-78
2020/12/06 08:15:24;;;;;;;11.90;9.13;;;;;;;6.07;84.76;100237.17;1700092;82;21669;-78
2020/12/06 08:17:51;;;;;;;14.13;9.85;;;;;;;6.04;84.92;100239.56;1699634;82;21219;-80
2020/12/06 08:20:20;;;;;;;14.73;10.13;;;;;;;6.09;84.75;100234.80;1693534;82;21241;-80
2020/12/06 08:22:51;;;;;;;16.95;10.18;;;;;;;6.15;84.65;100228.69;1695069;82;21690;-80
2020/12/06 08:25:20;;;;;;;13.35;9.35;;;;;;;6.08;84.75;100227.88;1691220;82;21238;-79
2020/12/06 08:27:47;;;;;;;13.13;9.10;;;;;;;6.02;84.73;100232.31;1696150;82;21632;-78
2020/12/06 08:30:16;;;;;;;11.90;8.48;;;;;;;5.98;84.88;100229.60;1685086;82;21177;-82
2020/12/06 08:33:02;;;;;;;14.05;9.60;;;;;;;5.92;84.82;100228.76;1698295;82;21216;-81
2020/12/06 08:35:41;;;;;;;14.15;9.88;;;;;;;5.86;84.81;100225.32;1698759;81;21771;-79
2020/12/06 08:38:23;;;;;;;13.65;10.55;;;;;;;5.82;84.90;100231.75;1704940;82;22014;-79
2020/12/06 08:41:12;;;;;;;13.30;9.85;;;;;;;5.72;85.04;100242.97;1700810;82;21180;-80
2020/12/06 08:43:49;;;;;;;13.25;9.15;;;;;;;5.71;85.22;100232.61;1703638;82;21576;-79
2020/12/06 08:46:18;;;;;;;11.73;8.60;;;;;;;5.72;85.40;100237.73;1704114;82;21191;-80
2020/12/06 08:48:44;;;;;;;13.70;9.33;;;;;;;5.78;85.16;100232.94;1695846;82;21128;-79
2020/12/06 08:51:33;;;;;;;13.05;9.35;;;;;;;5.79;84.92;100235.44;1688731;81;23222;-81
2020/12/06 08:54:01;;;;;;;14.73;10.10;;;;;;;5.91;84.46;100229.70;1694846;82;21177;-80
2020/12/06 08:56:37;;;;;;;13.90;9.13;;;;;;;5.85;84.30;100244.61;1695332;82;21184;-79
2020/12/06 08:59:09;;;;;;;13.15;9.08;;;;;;;5.80;84.33;100236.30;1700038;82;21624;-78
2020/12/06 09:01:53;;;;;;;13.60;9.85;;;;;;;5.75;84.27;100241.91;1679423;82;21826;-81
2020/12/06 09:04:19;;;;;;;14.30;10.55;;;;;;;5.69;84.38;100224.88;1693261;82;21205;-80
2020/12/06 09:06:45;;;;;;;16.55;10.68;;;;;;;5.55;84.63;100219.42;1699992;82;21197;-79
2020/12/06 09:09:11;;;;;;;12.85;9.28;;;;;;;5.56;84.73;100209.77;1701023;82;21204;-81
2020/12/06 09:11:37;;;;;;;12.40;8.60;;;;;;;5.59;84.68;100220.00;1700604;82;28570;-80
2020/12/06 09:14:03;;;;;;;12.43;9.40;;;;;;;5.58;84.64;100214.43;1688669;82;26944;-78
2020/12/06 09:16:28;;;;;;;15.23;10.30;;;;;;;5.63;84.65;100216.20;1694897;82;22082;-78
2020/12/06 09:18:54;;;;;;;13.93;10.00;;;;;;;5.72;84.26;100206.29;1687422;82;27615;-78
2020/12/06 09:21:20;;;;;;;13.05;9.23;;;;;;;5.74;84.19;100214.84;1692620;82;25479;-79
2020/12/06 09:23:47;;;;;;;12.82;9.78;;;;;;;5.62;84.38;100202.73;1689521;82;21196;-79
2020/12/06 09:26:13;;;;;;;13.50;9.28;;;;;;;5.57;84.44;100204.89;1689407;82;21251;-80
2020/12/06 09:28:39;;;;;;;12.95;9.13;;;;;;;5.61;84.27;100201.09;1689017;82;21239;-79
2020/12/06 09:31:04;;;;;;;15.10;10.48;;;;;;;5.62;84.30;100209.28;1684502;82;27064;-79
2020/12/06 09:33:30;;;;;;;14.70;10.28;;;;;;;5.59;84.34;100202.98;1695839;83;24586;-79
2020/12/06 09:35:56;;;;;;;12.00;8.70;;;;;;;5.54;84.33;100195.97;1698563;82;29002;-78
2020/12/06 09:38:22;;;;;;;15.38;8.75;;;;;;;5.61;84.26;100198.47;1697111;82;26746;-78
2020/12/06 09:40:48;;;;;;;12.88;8.45;;;;;;;5.56;84.19;100197.52;1687536;82;21870;-80
2020/12/06 09:43:14;;;;;;;12.65;8.90;;;;;;;5.62;84.07;100201.42;1679299;82;21145;-79
2020/12/06 09:45:43;;;;;;;13.98;9.30;;;;;;;5.66;83.86;100214.64;1688880;82;25316;-80
2020/12/06 09:48:09;;;;;;;13.40;9.45;;;;;;;5.81;83.45;100218.28;1681396;82;21312;-80
2020/12/06 09:50:35;;;;;;;14.20;9.15;;;;;;;5.92;83.12;100211.72;1692945;82;21273;-78
2020/12/06 09:53:01;;;;;;;12.60;8.40;;;;;;;6.06;82.83;100216.70;1696180;82;21961;-80
2020/12/06 09:55:26;;;;;;;14.43;9.28;;;;;;;5.99;82.58;100220.76;1695309;81;27171;-80
2020/12/06 09:57:52;;;;;;;14.23;9.57;;;;;;;5.92;82.69;100214.34;1691746;81;24147;-81
2020/12/06 10:00:18;;;;;;;14.07;10.48;;;;;;;5.92;82.72;100201.23;1697816;82;28365;-80
2020/12/06 10:02:44;;;;;;;14.70;9.80;;;;;;;6.03;82.65;100200.36;1688700;81;26692;-80
2020/12/06 10:05:11;;;;;;;14.38;9.40;;;;;;;5.94;82.44;100204.06;1693007;81;21995;-80
2020/12/06 10:07:37;;;;;;;13.05;8.80;;;;;;;5.92;82.19;100198.12;1685129;82;21152;-81
2020/12/06 10:10:07;;;;;;;11.88;8.80;;;;;;;5.89;82.03;100186.58;1687574;82;21221;-79
2020/12/06 10:12:32;;;;;;;12.90;9.35;;;;;;;5.97;81.79;100187.79;1689681;82;21343;-80
2020/12/06 10:14:58;;;;;;;11.85;8.33;;;;;;;5.94;81.72;100179.16;1699662;81;26841;-80
2020/12/06 10:17:24;;;;;;;12.82;8.58;;;;;;;5.90;81.69;100177.77;1687430;82;21970;-79
2020/12/06 10:19:51;;;;;;;13.25;7.92;;;;;;;5.88;81.88;100181.47;1696745;82;28122;-80
2020/12/06 10:22:17;;;;;;;13.25;8.70;;;;;;;5.86;82.32;100193.88;1697729;81;21754;-80
2020/12/06 10:24:42;;;;;;;12.85;9.15;;;;;;;5.83;82.07;100186.26;1684879;81;28753;-80
2020/12/06 10:27:08;;;;;;;11.65;8.48;;;;;;;5.84;81.96;100172.18;1694723;82;27074;-80
2020/12/06 10:29:34;;;;;;;13.78;9.10;;;;;;;5.77;82.12;100173.66;1688934;82;21953;-80
2020/12/06 10:32:00;;;;;;;13.18;8.80;;;;;;;5.75;82.26;100164.12;1691406;82;27121;-79
2020/12/06 10:34:26;;;;;;;11.55;8.10;;;;;;;5.79;82.19;100171.73;1701168;83;21125;-79
2020/12/06 10:36:56;;;;;;;11.15;8.13;;;;;;;5.92;81.81;100165.85;1696705;82;21193;-79
2020/12/06 10:39:22;;;;;;;12.88;9.18;;;;;;;5.88;81.86;100170.98;1692436;82;21245;-78
2020/12/06 10:41:50;;;;;;;12.98;8.93;;;;;;;5.84;81.86;100170.87;1687509;82;21267;-78
2020/12/06 10:44:17;;;;;;;16.20;9.30;;;;;;;5.88;81.85;100161.32;1690273;82;21208;-78
2020/12/06 10:46:43;;;;;;;12.82;8.73;;;;;;;5.90;81.84;100167.75;1699901;82;21205;-78
2020/12/06 10:49:09;;;;;;;13.40;8.58;;;;;;;5.88;81.88;100165.73;1691268;81;21559;-79
2020/12/06 10:51:34;;;;;;;13.00;8.73;;;;;;;5.96;81.80;100180.35;1686721;83;26966;-79
2020/12/06 10:54:00;;;;;;;13.20;9.35;;;;;;;6.03;81.39;100180.24;1687262;82;22110;-79
2020/12/06 10:56:27;;;;;;;13.58;9.25;;;;;;;6.04;81.18;100181.89;1693499;81;27157;-81
2020/12/06 10:58:54;;;;;;;13.65;9.38;;;;;;;5.88;81.37;100178.84;1687040;83;21113;-78
2020/12/06 11:01:24;;;;;;;14.33;9.63;;;;;;;5.82;81.14;100179.34;1684002;82;21505;-79
2020/12/06 11:03:53;;;;;;;15.80;8.98;;;;;;;5.89;80.75;100159.55;1687122;82;21220;-79
2020/12/06 11:06:20;;;;;;;14.18;9.80;;;;;;;5.87;80.83;100171.93;1692542;81;21380;-78
2020/12/06 11:08:46;;;;;;;14.47;9.63;;;;;;;5.91;80.60;100170.73;1682087;82;24766;-79
2020/12/06 11:11:15;;;;;;;15.90;10.25;;;;;;;5.95;80.37;100173.47;1694991;81;23948;-78
2020/12/06 11:13:41;;;;;;;16.80;10.65;;;;;;;5.93;80.27;100183.22;1686946;81;21605;-78
2020/12/06 11:16:08;;;;;;;14.75;10.48;;;;;;;5.91;80.55;100179.91;1682223;82;21258;-79
2020/12/06 11:18:34;;;;;;;14.83;9.43;;;;;;;5.91;80.61;100170.24;1683240;81;21276;-77
2020/12/06 11:21:00;;;;;;;13.72;9.68;;;;;;;5.93;80.59;100177.52;1692145;82;21213;-79